sensor_id;sensor_type;location;lat;lon;timestamp;P1;durP1;ratioP1;P2;durP2;ratioP2
14686;SDS011;7431;49.440;11.084;2023-04-01T00:00:29;4.07;;;1.60;;
14686;SDS011;7431;49.440;11.084;2023-04-01T00:02:55;3.00;;;1.40;;
14686;SDS011;7431;49.440;11.084;2023-04-01T00:05:22;2.87;;;1.70;;
14686;SDS011;7431;49.440;11.084;2023-04-01T00:07:49;2.07;;;1.50;;
14686;SDS011;7431;49.440;11.084;2023-04-01T00:10:16;2.87;;;1.60;;
14686;SDS011;7431;49.440;11.084;2023-04-01T00:12:43;4.10;;;2.13;;
14686;SDS011;7431;49.440;11.084;2023-04-01T00:15:10;4.17;;;1.20;;
14686;SDS011;7431;49.440;11.084;2023-04-01T00:17:37;3.50;;;1.73;;
14686;SDS011;7431;49.440;11.084;2023-04-01T00:20:04;2.77;;;1.73;;
14686;SDS011;7431;49.440;11.084;2023-04-01T00:22:30;3.53;;;1.50;;
14686;SDS011;7431;49.440;11.084;2023-04-01T00:24:56;2.30;;;1.50;;
14686;SDS011;7431;49.440;11.084;2023-04-01T00:27:22;5.87;;;1.90;;
14686;SDS011;7431;49.440;11.084;2023-04-01T00:29:48;3.90;;;1.50;;
14686;SDS011;7431;49.440;11.084;2023-04-01T00:32:14;2.37;;;1.60;;
14686;SDS011;7431;49.440;11.084;2023-04-01T00:34:40;3.77;;;1.50;;
14686;SDS011;7431;49.440;11.084;2023-04-01T00:37:06;3.73;;;1.43;;
14686;SDS011;7431;49.440;11.084;2023-04-01T00:39:33;5.70;;;1.50;;
14686;SDS011;7431;49.440;11.084;2023-04-01T00:42:00;3.13;;;1.60;;
14686;SDS011;7431;49.440;11.084;2023-04-01T00:44:28;3.10;;;1.30;;
14686;SDS011;7431;49.440;11.084;2023-04-01T00:46:54;3.87;;;1.90;;
14686;SDS011;7431;49.440;11.084;2023-04-01T00:49:22;5.50;;;2.50;;
14686;SDS011;7431;49.440;11.084;2023-04-01T00:51:50;3.97;;;1.37;;
14686;SDS011;7431;49.440;11.084;2023-04-01T00:54:17;2.83;;;1.40;;
14686;SDS011;7431;49.440;11.084;2023-04-01T00:56:45;2.47;;;1.57;;
14686;SDS011;7431;49.440;11.084;2023-04-01T00:59:17;3.13;;;1.53;;
14686;SDS011;7431;49.440;11.084;2023-04-01T01:01:44;3.07;;;1.57;;
14686;SDS011;7431;49.440;11.084;2023-04-01T01:04:21;3.60;;;1.30;;
14686;SDS011;7431;49.440;11.084;2023-04-01T01:09:30;4.17;;;1.50;;
14686;SDS011;7431;49.440;11.084;2023-04-01T01:14:28;2.77;;;1.10;;
14686;SDS011;7431;49.440;11.084;2023-04-01T01:16:59;2.30;;;1.17;;
14686;SDS011;7431;49.440;11.084;2023-04-01T01:19:42;2.50;;;1.50;;
14686;SDS011;7431;49.440;11.084;2023-04-01T01:24:56;3.03;;;1.30;;
14686;SDS011;7431;49.440;11.084;2023-04-01T01:27:26;2.37;;;1.57;;
14686;SDS011;7431;49.440;11.084;2023-04-01T01:30:16;3.30;;;1.50;;
14686;SDS011;7431;49.440;11.084;2023-04-01T01:37:56;2.73;;;1.23;;
14686;SDS011;7431;49.440;11.084;2023-04-01T01:40:24;3.10;;;1.60;;
14686;SDS011;7431;49.440;11.084;2023-04-01T01:42:53;2.93;;;1.50;;
14686;SDS011;7431;49.440;11.084;2023-04-01T01:45:21;2.87;;;1.70;;
14686;SDS011;7431;49.440;11.084;2023-04-01T01:47:49;3.97;;;1.50;;
14686;SDS011;7431;49.440;11.084;2023-04-01T01:50:16;2.50;;;1.63;;
14686;SDS011;7431;49.440;11.084;2023-04-01T01:52:43;2.80;;;1.53;;
14686;SDS011;7431;49.440;11.084;2023-04-01T01:55:23;2.03;;;1.30;;
14686;SDS011;7431;49.440;11.084;2023-04-01T01:57:50;3.73;;;1.73;;
14686;SDS011;7431;49.440;11.084;2023-04-01T02:00:16;3.77;;;1.40;;
14686;SDS011;7431;49.440;11.084;2023-04-01T02:02:44;2.10;;;1.50;;
14686;SDS011;7431;49.440;11.084;2023-04-01T02:05:11;2.27;;;1.80;;
14686;SDS011;7431;49.440;11.084;2023-04-01T02:07:41;2.93;;;1.50;;
14686;SDS011;7431;49.440;11.084;2023-04-01T02:10:08;2.97;;;1.53;;
14686;SDS011;7431;49.440;11.084;2023-04-01T02:12:35;3.13;;;1.63;;
14686;SDS011;7431;49.440;11.084;2023-04-01T02:15:03;2.17;;;1.43;;
14686;SDS011;7431;49.440;11.084;2023-04-01T02:17:32;3.70;;;1.83;;
14686;SDS011;7431;49.440;11.084;2023-04-01T02:20:01;2.80;;;1.43;;
14686;SDS011;7431;49.440;11.084;2023-04-01T02:22:29;4.33;;;1.47;;
14686;SDS011;7431;49.440;11.084;2023-04-01T02:24:58;2.17;;;1.37;;
14686;SDS011;7431;49.440;11.084;2023-04-01T02:27:25;3.60;;;1.43;;
14686;SDS011;7431;49.440;11.084;2023-04-01T02:29:51;3.00;;;1.47;;
14686;SDS011;7431;49.440;11.084;2023-04-01T02:32:18;3.33;;;1.43;;
14686;SDS011;7431;49.440;11.084;2023-04-01T02:34:45;2.07;;;1.20;;
14686;SDS011;7431;49.440;11.084;2023-04-01T02:37:11;2.83;;;1.43;;
14686;SDS011;7431;49.440;11.084;2023-04-01T02:39:37;3.57;;;1.40;;
14686;SDS011;7431;49.440;11.084;2023-04-01T02:42:03;2.57;;;1.40;;
14686;SDS011;7431;49.440;11.084;2023-04-01T02:44:30;1.83;;;1.30;;
14686;SDS011;7431;49.440;11.084;2023-04-01T02:46:56;3.03;;;1.17;;
14686;SDS011;7431;49.440;11.084;2023-04-01T02:49:22;1.40;;;1.00;;
14686;SDS011;7431;49.440;11.084;2023-04-01T02:51:48;3.07;;;1.73;;
14686;SDS011;7431;49.440;11.084;2023-04-01T02:54:14;1.33;;;1.00;;
14686;SDS011;7431;49.440;11.084;2023-04-01T02:56:40;2.90;;;1.20;;
14686;SDS011;7431;49.440;11.084;2023-04-01T02:59:06;2.37;;;1.20;;
14686;SDS011;7431;49.440;11.084;2023-04-01T03:01:32;1.43;;;1.10;;
14686;SDS011;7431;49.440;11.084;2023-04-01T03:03:58;2.07;;;1.17;;
14686;SDS011;7431;49.440;11.084;2023-04-01T03:06:24;2.53;;;1.50;;
14686;SDS011;7431;49.440;11.084;2023-04-01T03:08:50;2.13;;;1.13;;
14686;SDS011;7431;49.440;11.084;2023-04-01T03:11:16;3.57;;;1.17;;
14686;SDS011;7431;49.440;11.084;2023-04-01T03:13:42;3.53;;;1.47;;
14686;SDS011;7431;49.440;11.084;2023-04-01T03:16:09;1.97;;;1.20;;
14686;SDS011;7431;49.440;11.084;2023-04-01T03:18:35;2.27;;;1.13;;
14686;SDS011;7431;49.440;11.084;2023-04-01T03:21:14;3.17;;;1.17;;
14686;SDS011;7431;49.440;11.084;2023-04-01T03:23:41;2.37;;;1.10;;
14686;SDS011;7431;49.440;11.084;2023-04-01T03:26:07;1.83;;;1.00;;
14686;SDS011;7431;49.440;11.084;2023-04-01T03:28:33;1.47;;;1.10;;
14686;SDS011;7431;49.440;11.084;2023-04-01T03:30:59;2.03;;;1.03;;
14686;SDS011;7431;49.440;11.084;2023-04-01T03:33:25;2.13;;;1.30;;
14686;SDS011;7431;49.440;11.084;2023-04-01T03:35:51;2.50;;;1.20;;
14686;SDS011;7431;49.440;11.084;2023-04-01T03:38:17;1.93;;;1.10;;
14686;SDS011;7431;49.440;11.084;2023-04-01T03:40:44;5.80;;;1.40;;
14686;SDS011;7431;49.440;11.084;2023-04-01T03:43:10;2.83;;;1.20;;
14686;SDS011;7431;49.440;11.084;2023-04-01T03:45:43;1.90;;;1.30;;
14686;SDS011;7431;49.440;11.084;2023-04-01T03:48:09;2.77;;;1.10;;
14686;SDS011;7431;49.440;11.084;2023-04-01T03:50:35;2.00;;;1.00;;
14686;SDS011;7431;49.440;11.084;2023-04-01T03:53:01;3.73;;;1.13;;
14686;SDS011;7431;49.440;11.084;2023-04-01T03:55:27;1.90;;;1.20;;
14686;SDS011;7431;49.440;11.084;2023-04-01T03:57:53;3.53;;;1.27;;
14686;SDS011;7431;49.440;11.084;2023-04-01T04:00:19;4.00;;;1.20;;
14686;SDS011;7431;49.440;11.084;2023-04-01T04:02:45;2.40;;;1.07;;
14686;SDS011;7431;49.440;11.084;2023-04-01T04:05:11;2.90;;;1.37;;
14686;SDS011;7431;49.440;11.084;2023-04-01T04:07:38;1.67;;;1.03;;
14686;SDS011;7431;49.440;11.084;2023-04-01T04:10:04;4.67;;;1.60;;
14686;SDS011;7431;49.440;11.084;2023-04-01T04:12:30;2.87;;;1.50;;
14686;SDS011;7431;49.440;11.084;2023-04-01T04:14:57;2.80;;;1.40;;
14686;SDS011;7431;49.440;11.084;2023-04-01T04:17:23;3.27;;;1.20;;
14686;SDS011;7431;49.440;11.084;2023-04-01T04:19:49;3.30;;;1.17;;
14686;SDS011;7431;49.440;11.084;2023-04-01T04:22:15;3.43;;;1.07;;
14686;SDS011;7431;49.440;11.084;2023-04-01T04:24:41;3.17;;;1.03;;
14686;SDS011;7431;49.440;11.084;2023-04-01T04:27:07;2.77;;;1.10;;
14686;SDS011;7431;49.440;11.084;2023-04-01T04:29:33;2.27;;;1.20;;
14686;SDS011;7431;49.440;11.084;2023-04-01T04:31:59;2.33;;;1.23;;
14686;SDS011;7431;49.440;11.084;2023-04-01T04:34:25;2.57;;;1.00;;
14686;SDS011;7431;49.440;11.084;2023-04-01T04:36:51;4.97;;;1.33;;
14686;SDS011;7431;49.440;11.084;2023-04-01T04:39:17;2.93;;;1.10;;
14686;SDS011;7431;49.440;11.084;2023-04-01T04:41:43;2.33;;;1.17;;
14686;SDS011;7431;49.440;11.084;2023-04-01T04:44:09;1.60;;;1.10;;
14686;SDS011;7431;49.440;11.084;2023-04-01T04:46:35;4.03;;;1.33;;
14686;SDS011;7431;49.440;11.084;2023-04-01T04:49:04;4.87;;;1.20;;
14686;SDS011;7431;49.440;11.084;2023-04-01T04:51:30;2.50;;;0.93;;
14686;SDS011;7431;49.440;11.084;2023-04-01T04:53:59;2.80;;;0.93;;
14686;SDS011;7431;49.440;11.084;2023-04-01T04:56:25;2.27;;;1.00;;
14686;SDS011;7431;49.440;11.084;2023-04-01T04:58:51;3.50;;;1.10;;
14686;SDS011;7431;49.440;11.084;2023-04-01T05:01:17;3.10;;;1.33;;
14686;SDS011;7431;49.440;11.084;2023-04-01T05:03:44;3.23;;;1.60;;
14686;SDS011;7431;49.440;11.084;2023-04-01T05:06:10;1.20;;;1.00;;
14686;SDS011;7431;49.440;11.084;2023-04-01T05:08:37;1.57;;;1.00;;
14686;SDS011;7431;49.440;11.084;2023-04-01T05:11:06;2.03;;;0.80;;
14686;SDS011;7431;49.440;11.084;2023-04-01T05:13:34;1.53;;;1.03;;
14686;SDS011;7431;49.440;11.084;2023-04-01T05:16:00;2.97;;;1.10;;
14686;SDS011;7431;49.440;11.084;2023-04-01T05:18:49;1.40;;;0.93;;
14686;SDS011;7431;49.440;11.084;2023-04-01T05:21:15;2.97;;;1.10;;
14686;SDS011;7431;49.440;11.084;2023-04-01T05:23:44;2.23;;;1.90;;
14686;SDS011;7431;49.440;11.084;2023-04-01T05:26:14;2.00;;;1.37;;
14686;SDS011;7431;49.440;11.084;2023-04-01T05:28:40;2.33;;;1.50;;
14686;SDS011;7431;49.440;11.084;2023-04-01T05:31:06;3.03;;;1.37;;
14686;SDS011;7431;49.440;11.084;2023-04-01T05:33:33;2.80;;;0.97;;
14686;SDS011;7431;49.440;11.084;2023-04-01T05:36:32;2.30;;;1.13;;
14686;SDS011;7431;49.440;11.084;2023-04-01T05:38:54;1.73;;;0.90;;
14686;SDS011;7431;49.440;11.084;2023-04-01T05:41:20;1.13;;;1.00;;
14686;SDS011;7431;49.440;11.084;2023-04-01T05:43:46;1.40;;;1.00;;
14686;SDS011;7431;49.440;11.084;2023-04-01T05:46:15;1.87;;;0.90;;
14686;SDS011;7431;49.440;11.084;2023-04-01T05:48:41;0.83;;;0.80;;
14686;SDS011;7431;49.440;11.084;2023-04-01T05:51:11;2.23;;;0.90;;
14686;SDS011;7431;49.440;11.084;2023-04-01T05:53:38;2.50;;;1.10;;
14686;SDS011;7431;49.440;11.084;2023-04-01T05:56:04;1.77;;;1.00;;
14686;SDS011;7431;49.440;11.084;2023-04-01T05:58:33;1.13;;;0.80;;
14686;SDS011;7431;49.440;11.084;2023-04-01T06:01:03;2.13;;;0.83;;
14686;SDS011;7431;49.440;11.084;2023-04-01T06:03:32;1.07;;;0.80;;
14686;SDS011;7431;49.440;11.084;2023-04-01T06:06:08;1.57;;;0.83;;
14686;SDS011;7431;49.440;11.084;2023-04-01T06:08:42;2.20;;;0.80;;
14686;SDS011;7431;49.440;11.084;2023-04-01T06:11:23;0.73;;;0.60;;
14686;SDS011;7431;49.440;11.084;2023-04-01T06:14:03;1.30;;;0.60;;
14686;SDS011;7431;49.440;11.084;2023-04-01T06:24:30;4.40;;;1.17;;
14686;SDS011;7431;49.440;11.084;2023-04-01T06:30:00;2.07;;;1.00;;
14686;SDS011;7431;49.440;11.084;2023-04-01T06:34:58;1.23;;;0.90;;
14686;SDS011;7431;49.440;11.084;2023-04-01T06:40:06;1.47;;;0.50;;
14686;SDS011;7431;49.440;11.084;2023-04-01T06:50:22;3.63;;;0.93;;
14686;SDS011;7431;49.440;11.084;2023-04-01T06:55:36;1.73;;;1.00;;
14686;SDS011;7431;49.440;11.084;2023-04-01T06:58:21;1.07;;;0.70;;
14686;SDS011;7431;49.440;11.084;2023-04-01T07:01:00;1.53;;;0.70;;
14686;SDS011;7431;49.440;11.084;2023-04-01T07:06:25;1.13;;;0.77;;
14686;SDS011;7431;49.440;11.084;2023-04-01T07:08:52;1.83;;;1.13;;
14686;SDS011;7431;49.440;11.084;2023-04-01T07:11:38;1.50;;;1.40;;
14686;SDS011;7431;49.440;11.084;2023-04-01T07:14:06;0.60;;;0.60;;
14686;SDS011;7431;49.440;11.084;2023-04-01T07:16:43;2.57;;;0.93;;
14686;SDS011;7431;49.440;11.084;2023-04-01T07:19:18;1.17;;;0.80;;
14686;SDS011;7431;49.440;11.084;2023-04-01T07:21:48;1.00;;;0.70;;
14686;SDS011;7431;49.440;11.084;2023-04-01T07:24:26;1.50;;;0.87;;
14686;SDS011;7431;49.440;11.084;2023-04-01T07:26:54;2.20;;;1.13;;
14686;SDS011;7431;49.440;11.084;2023-04-01T07:29:20;2.20;;;1.33;;
14686;SDS011;7431;49.440;11.084;2023-04-01T07:34:26;1.10;;;0.90;;
14686;SDS011;7431;49.440;11.084;2023-04-01T07:42:15;1.07;;;0.83;;
14686;SDS011;7431;49.440;11.084;2023-04-01T07:50:29;1.57;;;1.00;;
14686;SDS011;7431;49.440;11.084;2023-04-01T07:53:22;2.90;;;0.90;;
14686;SDS011;7431;49.440;11.084;2023-04-01T08:00:48;2.07;;;1.20;;
14686;SDS011;7431;49.440;11.084;2023-04-01T08:03:20;2.40;;;1.07;;
14686;SDS011;7431;49.440;11.084;2023-04-01T08:06:08;2.53;;;1.53;;
14686;SDS011;7431;49.440;11.084;2023-04-01T08:16:20;3.67;;;1.07;;
14686;SDS011;7431;49.440;11.084;2023-04-01T08:21:28;1.80;;;1.30;;
14686;SDS011;7431;49.440;11.084;2023-04-01T08:23:57;2.17;;;1.30;;
14686;SDS011;7431;49.440;11.084;2023-04-01T08:29:08;2.40;;;1.03;;
14686;SDS011;7431;49.440;11.084;2023-04-01T08:34:15;1.77;;;1.07;;
14686;SDS011;7431;49.440;11.084;2023-04-01T08:36:43;1.47;;;0.87;;
14686;SDS011;7431;49.440;11.084;2023-04-01T08:39:12;1.07;;;0.83;;
14686;SDS011;7431;49.440;11.084;2023-04-01T09:02:50;4.90;;;1.87;;
14686;SDS011;7431;49.440;11.084;2023-04-01T09:36:55;1.63;;;1.00;;
14686;SDS011;7431;49.440;11.084;2023-04-01T09:44:33;2.13;;;1.90;;
14686;SDS011;7431;49.440;11.084;2023-04-01T09:49:36;1.33;;;0.90;;
14686;SDS011;7431;49.440;11.084;2023-04-01T10:03:01;1.67;;;1.30;;
14686;SDS011;7431;49.440;11.084;2023-04-01T10:05:42;5.07;;;3.93;;
14686;SDS011;7431;49.440;11.084;2023-04-01T10:18:36;1.40;;;1.03;;
14686;SDS011;7431;49.440;11.084;2023-04-01T10:33:57;2.87;;;1.77;;
14686;SDS011;7431;49.440;11.084;2023-04-01T10:46:49;1.20;;;0.87;;
14686;SDS011;7431;49.440;11.084;2023-04-01T11:05:06;2.17;;;1.30;;
14686;SDS011;7431;49.440;11.084;2023-04-01T11:21:07;1.27;;;1.10;;
14686;SDS011;7431;49.440;11.084;2023-04-01T11:31:29;2.07;;;1.20;;
14686;SDS011;7431;49.440;11.084;2023-04-01T11:34:16;1.10;;;1.00;;
14686;SDS011;7431;49.440;11.084;2023-04-01T11:39:33;1.43;;;1.33;;
14686;SDS011;7431;49.440;11.084;2023-04-01T11:42:21;5.37;;;3.37;;
14686;SDS011;7431;49.440;11.084;2023-04-01T11:55:24;1.37;;;1.27;;
14686;SDS011;7431;49.440;11.084;2023-04-01T11:57:57;1.40;;;1.20;;
14686;SDS011;7431;49.440;11.084;2023-04-01T12:05:48;3.83;;;2.90;;
14686;SDS011;7431;49.440;11.084;2023-04-01T12:11:00;3.60;;;2.60;;
14686;SDS011;7431;49.440;11.084;2023-04-01T12:13:44;4.30;;;2.90;;
14686;SDS011;7431;49.440;11.084;2023-04-01T12:16:21;2.87;;;1.90;;
14686;SDS011;7431;49.440;11.084;2023-04-01T12:18:51;1.20;;;1.10;;
14686;SDS011;7431;49.440;11.084;2023-04-01T12:21:36;1.57;;;1.10;;
14686;SDS011;7431;49.440;11.084;2023-04-01T12:37:03;1.00;;;0.97;;
14686;SDS011;7431;49.440;11.084;2023-04-01T12:42:20;0.90;;;0.90;;
14686;SDS011;7431;49.440;11.084;2023-04-01T12:52:52;1.30;;;1.10;;
14686;SDS011;7431;49.440;11.084;2023-04-01T13:05:55;2.50;;;2.30;;
14686;SDS011;7431;49.440;11.084;2023-04-01T13:11:09;2.00;;;1.10;;
14686;SDS011;7431;49.440;11.084;2023-04-01T13:18:51;1.27;;;0.90;;
14686;SDS011;7431;49.440;11.084;2023-04-01T13:27:16;1.97;;;1.20;;
14686;SDS011;7431;49.440;11.084;2023-04-01T13:32:18;1.57;;;0.90;;
14686;SDS011;7431;49.440;11.084;2023-04-01T13:42:49;2.43;;;2.00;;
14686;SDS011;7431;49.440;11.084;2023-04-01T13:45:29;1.67;;;1.30;;
14686;SDS011;7431;49.440;11.084;2023-04-01T14:03:14;2.17;;;1.70;;
14686;SDS011;7431;49.440;11.084;2023-04-01T14:21:38;2.17;;;1.73;;
14686;SDS011;7431;49.440;11.084;2023-04-01T14:24:09;2.70;;;2.23;;
14686;SDS011;7431;49.440;11.084;2023-04-01T14:55:36;2.03;;;1.70;;
14686;SDS011;7431;49.440;11.084;2023-04-01T14:58:13;1.57;;;1.43;;
14686;SDS011;7431;49.440;11.084;2023-04-01T15:06:10;1.37;;;1.20;;
14686;SDS011;7431;49.440;11.084;2023-04-01T15:08:44;1.40;;;0.80;;
14686;SDS011;7431;49.440;11.084;2023-04-01T15:11:17;1.40;;;1.20;;
14686;SDS011;7431;49.440;11.084;2023-04-01T15:32:04;0.73;;;0.73;;
14686;SDS011;7431;49.440;11.084;2023-04-01T15:34:19;2.00;;;1.63;;
14686;SDS011;7431;49.440;11.084;2023-04-01T15:36:56;1.10;;;1.00;;
14686;SDS011;7431;49.440;11.084;2023-04-01T15:39:24;3.33;;;2.10;;
14686;SDS011;7431;49.440;11.084;2023-04-01T15:42:03;2.00;;;1.80;;
14686;SDS011;7431;49.440;11.084;2023-04-01T15:44:37;2.60;;;1.60;;
14686;SDS011;7431;49.440;11.084;2023-04-01T15:49:56;1.53;;;1.10;;
14686;SDS011;7431;49.440;11.084;2023-04-01T15:52:24;2.40;;;1.40;;
14686;SDS011;7431;49.440;11.084;2023-04-01T15:55:08;1.70;;;1.60;;
14686;SDS011;7431;49.440;11.084;2023-04-01T16:02:56;2.00;;;1.80;;
14686;SDS011;7431;49.440;11.084;2023-04-01T16:10:37;2.00;;;1.50;;
14686;SDS011;7431;49.440;11.084;2023-04-01T16:18:21;1.70;;;1.50;;
14686;SDS011;7431;49.440;11.084;2023-04-01T16:20:54;1.50;;;1.40;;
14686;SDS011;7431;49.440;11.084;2023-04-01T16:23:41;1.70;;;1.53;;
14686;SDS011;7431;49.440;11.084;2023-04-01T16:26:13;1.40;;;1.30;;
14686;SDS011;7431;49.440;11.084;2023-04-01T16:28:44;2.10;;;1.40;;
14686;SDS011;7431;49.440;11.084;2023-04-01T16:31:26;3.10;;;2.70;;
14686;SDS011;7431;49.440;11.084;2023-04-01T16:34:10;3.30;;;3.00;;
14686;SDS011;7431;49.440;11.084;2023-04-01T16:36:49;2.90;;;2.40;;
14686;SDS011;7431;49.440;11.084;2023-04-01T16:44:52;2.83;;;2.63;;
14686;SDS011;7431;49.440;11.084;2023-04-01T16:47:23;1.43;;;1.30;;
14686;SDS011;7431;49.440;11.084;2023-04-01T16:52:42;1.67;;;1.40;;
14686;SDS011;7431;49.440;11.084;2023-04-01T16:55:18;1.53;;;1.43;;
14686;SDS011;7431;49.440;11.084;2023-04-01T17:00:36;2.47;;;2.00;;
14686;SDS011;7431;49.440;11.084;2023-04-01T17:05:40;1.50;;;1.30;;
14686;SDS011;7431;49.440;11.084;2023-04-01T17:08:11;2.80;;;2.20;;
14686;SDS011;7431;49.440;11.084;2023-04-01T17:10:56;2.53;;;1.67;;
14686;SDS011;7431;49.440;11.084;2023-04-01T17:21:38;2.50;;;2.30;;
14686;SDS011;7431;49.440;11.084;2023-04-01T17:24:14;2.77;;;1.87;;
14686;SDS011;7431;49.440;11.084;2023-04-01T17:29:25;2.73;;;2.40;;
14686;SDS011;7431;49.440;11.084;2023-04-01T17:31:55;3.20;;;2.47;;
14686;SDS011;7431;49.440;11.084;2023-04-01T17:34:51;2.70;;;2.40;;
14686;SDS011;7431;49.440;11.084;2023-04-01T17:39:54;4.30;;;2.80;;
14686;SDS011;7431;49.440;11.084;2023-04-01T17:42:31;4.30;;;3.10;;
14686;SDS011;7431;49.440;11.084;2023-04-01T17:52:56;2.17;;;1.90;;
14686;SDS011;7431;49.440;11.084;2023-04-01T17:55:35;1.90;;;1.70;;
14686;SDS011;7431;49.440;11.084;2023-04-01T17:58:10;1.33;;;1.23;;
14686;SDS011;7431;49.440;11.084;2023-04-01T18:00:59;2.70;;;1.90;;
14686;SDS011;7431;49.440;11.084;2023-04-01T18:06:14;2.27;;;1.77;;
14686;SDS011;7431;49.440;11.084;2023-04-01T18:11:25;2.17;;;2.07;;
14686;SDS011;7431;49.440;11.084;2023-04-01T18:21:52;2.07;;;1.73;;
14686;SDS011;7431;49.440;11.084;2023-04-01T18:24:33;2.03;;;1.47;;
14686;SDS011;7431;49.440;11.084;2023-04-01T18:29:51;2.93;;;2.73;;
14686;SDS011;7431;49.440;11.084;2023-04-01T18:32:26;8.27;;;5.57;;
14686;SDS011;7431;49.440;11.084;2023-04-01T18:37:49;7.23;;;5.33;;
14686;SDS011;7431;49.440;11.084;2023-04-01T18:40:24;6.57;;;3.73;;
14686;SDS011;7431;49.440;11.084;2023-04-01T18:45:46;3.07;;;2.70;;
14686;SDS011;7431;49.440;11.084;2023-04-01T18:51:03;2.83;;;2.20;;
14686;SDS011;7431;49.440;11.084;2023-04-01T18:53:37;2.87;;;2.43;;
14686;SDS011;7431;49.440;11.084;2023-04-01T18:56:11;5.83;;;3.97;;
14686;SDS011;7431;49.440;11.084;2023-04-01T18:58:46;7.77;;;5.53;;
14686;SDS011;7431;49.440;11.084;2023-04-01T19:01:15;7.53;;;5.13;;
14686;SDS011;7431;49.440;11.084;2023-04-01T19:06:14;2.10;;;1.90;;
14686;SDS011;7431;49.440;11.084;2023-04-01T19:08:41;2.40;;;2.10;;
14686;SDS011;7431;49.440;11.084;2023-04-01T19:11:14;3.13;;;2.50;;
14686;SDS011;7431;49.440;11.084;2023-04-01T19:22:30;6.63;;;4.70;;
14686;SDS011;7431;49.440;11.084;2023-04-01T19:38:24;2.10;;;1.90;;
14686;SDS011;7431;49.440;11.084;2023-04-01T19:40:55;2.50;;;2.30;;
14686;SDS011;7431;49.440;11.084;2023-04-01T19:46:05;3.30;;;2.50;;
14686;SDS011;7431;49.440;11.084;2023-04-01T19:48:43;2.90;;;2.40;;
14686;SDS011;7431;49.440;11.084;2023-04-01T19:51:16;1.77;;;1.57;;
14686;SDS011;7431;49.440;11.084;2023-04-01T19:56:18;4.17;;;3.63;;
14686;SDS011;7431;49.440;11.084;2023-04-01T20:01:27;2.53;;;1.70;;
14686;SDS011;7431;49.440;11.084;2023-04-01T20:03:55;2.33;;;1.50;;
14686;SDS011;7431;49.440;11.084;2023-04-01T20:09:21;4.13;;;3.07;;
14686;SDS011;7431;49.440;11.084;2023-04-01T20:12:06;3.17;;;1.87;;
14686;SDS011;7431;49.440;11.084;2023-04-01T20:19:39;2.20;;;1.87;;
14686;SDS011;7431;49.440;11.084;2023-04-01T20:22:16;5.03;;;2.40;;
14686;SDS011;7431;49.440;11.084;2023-04-01T20:24:46;3.30;;;1.87;;
14686;SDS011;7431;49.440;11.084;2023-04-01T20:27:15;2.00;;;1.80;;
14686;SDS011;7431;49.440;11.084;2023-04-01T20:32:16;4.13;;;2.50;;
14686;SDS011;7431;49.440;11.084;2023-04-01T20:34:49;2.40;;;1.50;;
14686;SDS011;7431;49.440;11.084;2023-04-01T20:39:52;1.50;;;1.40;;
14686;SDS011;7431;49.440;11.084;2023-04-01T20:42:27;1.70;;;1.47;;
14686;SDS011;7431;49.440;11.084;2023-04-01T20:50:38;2.90;;;2.30;;
14686;SDS011;7431;49.440;11.084;2023-04-01T20:53:11;1.93;;;1.73;;
14686;SDS011;7431;49.440;11.084;2023-04-01T20:58:08;2.43;;;1.40;;
14686;SDS011;7431;49.440;11.084;2023-04-01T21:01:20;2.67;;;1.57;;
14686;SDS011;7431;49.440;11.084;2023-04-01T21:06:21;2.10;;;1.60;;
14686;SDS011;7431;49.440;11.084;2023-04-01T21:09:16;1.97;;;1.43;;
14686;SDS011;7431;49.440;11.084;2023-04-01T21:17:13;2.27;;;1.73;;
14686;SDS011;7431;49.440;11.084;2023-04-01T21:25:29;3.47;;;2.50;;
14686;SDS011;7431;49.440;11.084;2023-04-01T21:59:57;1.53;;;1.30;;
14686;SDS011;7431;49.440;11.084;2023-04-01T22:05:03;2.20;;;1.70;;
14686;SDS011;7431;49.440;11.084;2023-04-01T22:07:44;1.83;;;1.40;;
14686;SDS011;7431;49.440;11.084;2023-04-01T22:12:46;1.60;;;1.50;;
14686;SDS011;7431;49.440;11.084;2023-04-01T22:15:26;2.20;;;1.23;;
14686;SDS011;7431;49.440;11.084;2023-04-01T22:18:05;2.83;;;2.40;;
14686;SDS011;7431;49.440;11.084;2023-04-01T22:20:40;2.87;;;1.97;;
14686;SDS011;7431;49.440;11.084;2023-04-01T22:25:57;2.10;;;1.33;;
14686;SDS011;7431;49.440;11.084;2023-04-01T22:28:58;2.03;;;1.23;;
14686;SDS011;7431;49.440;11.084;2023-04-01T22:31:19;3.03;;;1.90;;
14686;SDS011;7431;49.440;11.084;2023-04-01T22:34:31;2.70;;;1.53;;
14686;SDS011;7431;49.440;11.084;2023-04-01T22:36:44;1.57;;;1.13;;
14686;SDS011;7431;49.440;11.084;2023-04-01T22:44:25;1.87;;;1.17;;
14686;SDS011;7431;49.440;11.084;2023-04-01T22:46:56;1.10;;;1.00;;
14686;SDS011;7431;49.440;11.084;2023-04-01T22:49:27;2.03;;;1.40;;
14686;SDS011;7431;49.440;11.084;2023-04-01T22:54:31;1.93;;;1.13;;
14686;SDS011;7431;49.440;11.084;2023-04-01T23:02:16;1.53;;;1.30;;
14686;SDS011;7431;49.440;11.084;2023-04-01T23:04:45;1.50;;;1.40;;
14686;SDS011;7431;49.440;11.084;2023-04-01T23:07:19;2.07;;;1.30;;
14686;SDS011;7431;49.440;11.084;2023-04-01T23:09:47;1.50;;;1.03;;
14686;SDS011;7431;49.440;11.084;2023-04-01T23:12:14;2.17;;;1.20;;
14686;SDS011;7431;49.440;11.084;2023-04-01T23:22:49;1.07;;;0.97;;
14686;SDS011;7431;49.440;11.084;2023-04-01T23:33:50;1.87;;;1.20;;
14686;SDS011;7431;49.440;11.084;2023-04-01T23:35:56;1.53;;;1.43;;
14686;SDS011;7431;49.440;11.084;2023-04-01T23:38:30;1.90;;;1.30;;
14686;SDS011;7431;49.440;11.084;2023-04-01T23:40:57;1.50;;;1.40;;
14686;SDS011;7431;49.440;11.084;2023-04-01T23:43:24;3.27;;;1.50;;
14686;SDS011;7431;49.440;11.084;2023-04-01T23:45:52;1.67;;;1.57;;
14686;SDS011;7431;49.440;11.084;2023-04-01T23:48:18;3.07;;;1.60;;
14686;SDS011;7431;49.440;11.084;2023-04-01T23:50:45;2.57;;;1.87;;
14686;SDS011;7431;49.440;11.084;2023-04-01T23:53:18;2.20;;;1.73;;
14686;SDS011;7431;49.440;11.084;2023-04-01T23:55:46;1.63;;;1.50;;
14686;SDS011;7431;49.440;11.084;2023-04-01T23:58:21;2.73;;;1.50;;
